Time;durP1;ratioP1;P1;durP2;ratioP2;P2;SDS_P1;SDS_P2;PMS_P1;PMS_P2;Temp;Humidity;BMP_temperature;BMP_pressure;BME280_temperature;BME280_humidity;BME280_pressure;Samples;Min_cycle;Max_cycle;Signal;HPM_P1;HPM_P2
2021/05/13 00:00:50;;;;;;;11.38;6.43;;;12.10;73.10;;;;;;5026680;28;20038;-80
2021/05/13 00:03:16;;;;;;;13.35;6.82;;;12.10;73.50;;;;;;5018721;28;20457;-76
2021/05/13 00:05:41;;;;;;;13.23;6.43;;;12.10;73.30;;;;;;5017921;28;20034;-77
2021/05/13 00:08:07;;;;;;;13.10;6.13;;;12.10;72.80;;;;;;5022411;28;20045;-76
2021/05/13 00:10:33;;;;;;;10.50;6.05;;;12.10;72.50;;;;;;4998245;28;20085;-76
2021/05/13 00:13:00;;;;;;;12.38;6.00;;;12.10;72.80;;;;;;4996484;28;20033;-79
2021/05/13 00:15:35;;;;;;;10.80;6.07;;;12.20;73.00;;;;;;5005977;28;20038;-77
2021/05/13 00:18:02;;;;;;;11.15;5.90;;;12.20;72.90;;;;;;4999976;28;20474;-76
2021/05/13 00:20:31;;;;;;;10.18;5.72;;;12.20;72.40;;;;;;5020884;28;20103;-79
2021/05/13 00:22:57;;;;;;;12.48;6.30;;;12.30;72.00;;;;;;5021261;28;20120;-76
2021/05/13 00:25:24;;;;;;;13.15;6.53;;;12.20;71.50;;;;;;5018574;28;20028;-76
2021/05/13 00:27:50;;;;;;;11.38;5.60;;;12.30;71.40;;;;;;5017590;28;20029;-78
2021/05/13 00:30:17;;;;;;;12.82;5.90;;;12.30;71.40;;;;;;5011136;28;20386;-76
2021/05/13 00:32:43;;;;;;;12.70;6.65;;;12.30;71.00;;;;;;5023523;28;20041;-77
2021/05/13 00:35:12;;;;;;;12.10;5.80;;;12.30;71.10;;;;;;5026009;28;20473;-76
2021/05/13 00:37:38;;;;;;;12.23;5.63;;;12.40;70.90;;;;;;5025411;28;20046;-76
2021/05/13 00:40:06;;;;;;;16.40;6.50;;;12.30;71.10;;;;;;5025254;28;20068;-77
2021/05/13 00:42:32;;;;;;;10.55;5.90;;;12.20;71.00;;;;;;5024669;28;20336;-76
2021/05/13 00:44:58;;;;;;;10.18;5.93;;;12.20;71.00;;;;;;5025271;28;20469;-80
2021/05/13 00:47:25;;;;;;;10.02;5.70;;;12.10;71.30;;;;;;5021250;28;20034;-76
2021/05/13 00:49:51;;;;;;;13.43;5.93;;;12.10;71.80;;;;;;5027854;28;20469;-76
2021/05/13 00:52:19;;;;;;;12.55;6.10;;;12.20;71.90;;;;;;5010529;28;20158;-76
2021/05/13 00:54:45;;;;;;;15.05;6.82;;;12.10;72.30;;;;;;5014958;28;20084;-76
2021/05/13 00:57:13;;;;;;;13.27;6.78;;;12.10;72.20;;;;;;5012854;28;20038;-77
2021/05/13 00:59:48;;;;;;;13.30;6.80;;;12.10;72.30;;;;;;5018804;28;20072;-79
2021/05/13 01:02:14;;;;;;;13.77;7.00;;;12.10;72.80;;;;;;5021227;28;20034;-76
2021/05/13 01:04:40;;;;;;;10.27;5.72;;;12.00;73.10;;;;;;5015292;28;20190;-76
2021/05/13 01:07:06;;;;;;;13.38;6.63;;;12.00;72.80;;;;;;5028658;28;20492;-76
2021/05/13 01:09:32;;;;;;;12.63;6.38;;;12.00;72.50;;;;;;5025571;28;20029;-76
2021/05/13 01:12:03;;;;;;;13.50;6.28;;;12.00;72.40;;;;;;5019471;28;20030;-76
2021/05/13 01:14:42;;;;;;;13.13;6.40;;;12.00;72.20;;;;;;5006597;28;20778;-76
2021/05/13 01:19:48;;;;;;;12.93;6.60;;;11.90;72.80;;;;;;5006690;28;20022;-76
2021/05/13 01:22:15;;;;;;;15.07;7.47;;;11.80;73.40;;;;;;5003241;28;20037;-77
2021/05/13 01:24:40;;;;;;;12.45;6.38;;;11.70;73.70;;;;;;5006755;28;20057;-76
2021/05/13 01:27:06;;;;;;;11.77;6.72;;;11.70;73.70;;;;;;5009013;28;20060;-76
2021/05/13 01:29:32;;;;;;;15.50;7.60;;;11.70;73.80;;;;;;5006551;28;20030;-75
2021/05/13 01:31:58;;;;;;;12.52;7.43;;;11.60;73.70;;;;;;5032302;28;20717;-76
2021/05/13 01:34:24;;;;;;;12.90;6.38;;;11.60;74.20;;;;;;5022516;28;20025;-76
2021/05/13 01:36:50;;;;;;;13.77;6.78;;;11.50;74.10;;;;;;5023595;28;20088;-78
2021/05/13 01:39:16;;;;;;;12.13;6.80;;;11.50;74.30;;;;;;4998235;28;20041;-76
2021/05/13 01:41:42;;;;;;;13.20;7.22;;;11.60;74.10;;;;;;4999798;28;20041;-77
2021/05/13 01:44:09;;;;;;;12.32;6.40;;;11.60;73.70;;;;;;5008990;28;20029;-77
2021/05/13 01:46:36;;;;;;;13.20;6.68;;;11.60;73.90;;;;;;5027061;28;20045;-77
2021/05/13 01:49:03;;;;;;;11.10;6.55;;;11.60;73.80;;;;;;5013362;28;20399;-77
2021/05/13 01:51:29;;;;;;;12.05;6.70;;;11.60;73.80;;;;;;5006557;28;20363;-78
2021/05/13 01:53:55;;;;;;;10.32;6.40;;;11.60;73.50;;;;;;5002933;28;20107;-76
2021/05/13 01:56:20;;;;;;;12.55;6.30;;;11.60;73.30;;;;;;5021480;28;20049;-80
2021/05/13 01:58:46;;;;;;;12.93;7.38;;;11.50;73.00;;;;;;5025082;28;20441;-76
2021/05/13 02:01:14;;;;;;;12.60;7.30;;;11.50;73.40;;;;;;5029467;28;20030;-77
2021/05/13 02:03:42;;;;;;;13.38;6.85;;;11.40;73.70;;;;;;5023202;28;20385;-76
2021/05/13 02:06:08;;;;;;;14.75;7.10;;;11.40;73.80;;;;;;5030621;28;20029;-76
2021/05/13 02:08:35;;;;;;;13.10;7.03;;;11.30;74.30;;;;;;5026358;28;20092;-76
2021/05/13 02:11:01;;;;;;;9.82;6.40;;;11.20;74.40;;;;;;5011083;28;20558;-75
2021/05/13 02:13:27;;;;;;;13.02;6.40;;;11.20;74.50;;;;;;5018269;28;20469;-76
2021/05/13 02:15:52;;;;;;;13.85;7.30;;;11.10;74.60;;;;;;5011598;28;20029;-78
2021/05/13 02:18:20;;;;;;;12.73;6.50;;;11.20;74.80;;;;;;5020800;28;20127;-77
2021/05/13 02:20:46;;;;;;;16.38;7.70;;;11.10;74.60;;;;;;5024720;28;20488;-76
2021/05/13 02:23:12;;;;;;;11.90;6.50;;;11.10;74.60;;;;;;5035646;28;20064;-76
2021/05/13 02:25:39;;;;;;;12.23;6.63;;;11.10;74.70;;;;;;5025478;28;20057;-76
2021/05/13 02:28:05;;;;;;;11.77;6.57;;;11.10;74.60;;;;;;5026738;28;20453;-76
2021/05/13 02:30:31;;;;;;;13.07;6.90;;;11.10;74.60;;;;;;5017455;28;20041;-77
2021/05/13 02:32:56;;;;;;;15.93;7.03;;;11.10;74.60;;;;;;5026560;28;20465;-77
2021/05/13 02:35:22;;;;;;;10.88;5.97;;;11.10;74.40;;;;;;5025545;28;20121;-77
2021/05/13 02:37:48;;;;;;;12.13;6.13;;;11.10;74.50;;;;;;5026879;28;20489;-77
2021/05/13 02:40:16;;;;;;;12.77;6.60;;;11.10;74.30;;;;;;5029924;28;20025;-77
2021/05/13 02:42:43;;;;;;;14.68;6.70;;;11.10;74.10;;;;;;5027258;28;20042;-76
2021/05/13 02:45:10;;;;;;;10.38;6.47;;;11.10;74.10;;;;;;5021664;28;20138;-77
2021/05/13 02:47:36;;;;;;;12.02;6.30;;;11.10;74.40;;;;;;5027371;28;20088;-76
2021/05/13 02:50:03;;;;;;;11.13;6.57;;;11.10;74.30;;;;;;5031124;28;20537;-78
2021/05/13 02:52:29;;;;;;;14.55;7.00;;;11.00;74.50;;;;;;5012409;28;20129;-76
2021/05/13 02:54:55;;;;;;;15.10;7.03;;;11.10;74.60;;;;;;5023255;28;20531;-76
2021/05/13 02:57:20;;;;;;;11.70;7.53;;;11.10;74.60;;;;;;5031365;28;20057;-81
2021/05/13 02:59:48;;;;;;;12.98;7.05;;;11.00;74.70;;;;;;5020497;28;20038;-76
2021/05/13 03:02:15;;;;;;;13.43;6.70;;;11.00;75.00;;;;;;5026725;28;20095;-77
2021/05/13 03:04:41;;;;;;;12.98;6.60;;;10.90;75.60;;;;;;5022895;28;20576;-76
2021/05/13 03:07:08;;;;;;;11.52;6.70;;;10.90;75.70;;;;;;5026453;28;20037;-76
2021/05/13 03:09:37;;;;;;;11.00;6.80;;;10.90;75.60;;;;;;5025075;28;20045;-76
2021/05/13 03:12:03;;;;;;;13.43;7.32;;;10.80;75.80;;;;;;5014659;28;20084;-76
2021/05/13 03:14:29;;;;;;;12.63;6.93;;;10.90;76.10;;;;;;5021116;28;20030;-75
2021/05/13 03:16:55;;;;;;;13.30;7.05;;;10.90;76.00;;;;;;5018602;28;20049;-74
2021/05/13 03:19:28;;;;;;;11.73;6.90;;;10.90;76.10;;;;;;5025672;28;20554;-77
2021/05/13 03:21:57;;;;;;;14.82;7.53;;;10.90;76.30;;;;;;5023637;28;20033;-74
2021/05/13 03:29:15;;;;;;;13.60;7.20;;;11.00;76.30;;;;;;5011527;28;20030;-76
2021/05/13 03:31:41;;;;;;;13.30;6.82;;;11.00;76.20;;;;;;5028693;28;20138;-76
2021/05/13 03:34:07;;;;;;;11.18;6.95;;;11.00;76.20;;;;;;5027780;28;20117;-81
2021/05/13 03:36:33;;;;;;;11.20;6.97;;;11.10;76.20;;;;;;5027796;28;20396;-76
2021/05/13 03:39:02;;;;;;;12.10;7.22;;;11.00;76.10;;;;;;5012186;28;20034;-75
2021/05/13 03:41:27;;;;;;;12.95;7.03;;;11.10;76.20;;;;;;5009227;28;20030;-75
2021/05/13 03:43:53;;;;;;;12.75;7.38;;;11.10;75.90;;;;;;5009960;28;20030;-74
2021/05/13 03:46:19;;;;;;;14.20;6.80;;;11.10;75.70;;;;;;5029364;28;20069;-77
2021/05/13 03:48:44;;;;;;;11.30;6.68;;;11.10;75.80;;;;;;5020067;28;20080;-76
2021/05/13 03:51:10;;;;;;;12.32;7.65;;;11.20;75.80;;;;;;5012612;28;20040;-76
2021/05/13 03:53:36;;;;;;;12.93;7.40;;;11.10;75.90;;;;;;5023721;28;20382;-75
2021/05/13 03:56:01;;;;;;;13.52;7.22;;;11.10;76.00;;;;;;5027256;28;20072;-78
2021/05/13 03:58:32;;;;;;;12.35;6.97;;;11.20;75.90;;;;;;5026828;28;20051;-75
2021/05/13 04:03:23;;;;;;;11.82;6.70;;;11.20;75.90;;;;;;5025218;28;20030;-75
2021/05/13 04:05:48;;;;;;;14.00;7.40;;;11.20;76.00;;;;;;5006189;28;20053;-81
2021/05/13 04:08:14;;;;;;;14.05;9.13;;;11.30;75.70;;;;;;5015788;28;20030;-76
2021/05/13 04:10:41;;;;;;;13.10;8.20;;;11.20;75.90;;;;;;5038338;28;20033;-76
2021/05/13 04:13:10;;;;;;;16.23;8.45;;;11.20;76.20;;;;;;5016677;28;20026;-77
2021/05/13 04:15:36;;;;;;;15.95;8.70;;;11.10;76.50;;;;;;5028549;28;20492;-75
2021/05/13 04:18:02;;;;;;;13.90;8.23;;;11.10;76.60;;;;;;5028088;28;20493;-76
2021/05/13 04:20:27;;;;;;;13.57;8.57;;;11.10;77.10;;;;;;5008652;28;20033;-75
2021/05/13 04:22:53;;;;;;;19.83;8.88;;;11.00;77.20;;;;;;5016836;28;20030;-75
2021/05/13 04:25:19;;;;;;;14.30;8.10;;;11.00;77.20;;;;;;5027600;28;20083;-76
2021/05/13 04:27:46;;;;;;;14.48;8.23;;;11.10;77.30;;;;;;5020900;28;20378;-75
2021/05/13 04:30:12;;;;;;;14.15;8.40;;;11.10;77.30;;;;;;5021545;28;20078;-79
2021/05/13 04:32:38;;;;;;;13.73;7.65;;;11.10;77.40;;;;;;5020384;28;20634;-75
2021/05/13 04:35:04;;;;;;;10.68;7.28;;;11.20;76.70;;;;;;5028470;28;20049;-76
2021/05/13 04:37:30;;;;;;;14.68;8.20;;;11.20;76.80;;;;;;5024114;28;20095;-76
2021/05/13 04:39:56;;;;;;;14.32;8.10;;;11.20;76.80;;;;;;5014661;28;20027;-75
2021/05/13 04:42:21;;;;;;;15.15;8.45;;;11.30;76.80;;;;;;5017213;28;20436;-76
2021/05/13 04:44:47;;;;;;;13.05;7.50;;;11.30;76.60;;;;;;5028097;28;20036;-75
2021/05/13 04:47:24;;;;;;;12.82;8.15;;;11.30;76.50;;;;;;5024544;28;20052;-75
2021/05/13 04:49:51;;;;;;;14.10;7.97;;;11.30;76.80;;;;;;5009321;28;20032;-76
2021/05/13 04:52:18;;;;;;;11.85;8.20;;;11.30;76.70;;;;;;5021298;28;20083;-75
2021/05/13 04:54:48;;;;;;;12.52;7.70;;;11.30;76.80;;;;;;5025992;28;20036;-75
2021/05/13 04:57:13;;;;;;;15.52;8.10;;;11.40;76.80;;;;;;5023945;28;20900;-75
2021/05/13 04:59:39;;;;;;;13.02;8.52;;;11.40;77.00;;;;;;5021332;28;20486;-75
2021/05/13 05:02:05;;;;;;;17.00;7.53;;;11.40;76.90;;;;;;5029762;28;20527;-75
2021/05/13 05:04:30;;;;;;;15.38;8.40;;;11.50;76.90;;;;;;5021512;28;20041;-75
2021/05/13 05:06:56;;;;;;;13.15;7.93;;;11.50;76.60;;;;;;5018964;28;20064;-75
2021/05/13 05:09:23;;;;;;;12.45;8.27;;;11.60;76.60;;;;;;5018880;28;20033;-75
2021/05/13 05:11:48;;;;;;;12.18;7.05;;;11.60;76.50;;;;;;5020003;28;20033;-77
2021/05/13 05:14:14;;;;;;;11.20;7.65;;;11.70;76.50;;;;;;5026305;28;20032;-75
2021/05/13 05:16:40;;;;;;;15.93;9.88;;;11.70;76.50;;;;;;5028882;28;20680;-75
2021/05/13 05:19:05;;;;;;;23.00;17.45;;;11.80;76.50;;;;;;5017639;28;20084;-75
2021/05/13 05:21:31;;;;;;;25.00;22.48;;;11.90;76.20;;;;;;5018248;28;20077;-75
2021/05/13 05:23:57;;;;;;;14.63;12.52;;;12.00;76.60;;;;;;5027905;28;20500;-75
2021/05/13 05:26:22;;;;;;;13.32;11.18;;;12.10;76.20;;;;;;5027882;28;20061;-76
2021/05/13 05:28:48;;;;;;;14.93;11.75;;;12.20;76.00;;;;;;5043342;28;20032;-79
2021/05/13 05:31:14;;;;;;;11.93;8.52;;;12.20;75.30;;;;;;5046626;28;20486;-76
2021/05/13 05:33:39;;;;;;;13.93;10.45;;;12.20;75.20;;;;;;5036448;28;20037;-76
2021/05/13 05:36:05;;;;;;;25.20;22.10;;;12.30;74.80;;;;;;5035300;28;20026;-75
2021/05/13 05:38:31;;;;;;;16.65;9.82;;;12.40;74.80;;;;;;5026061;28;20056;-74
2021/05/13 05:40:56;;;;;;;13.75;7.35;;;12.40;75.00;;;;;;5026883;28;20041;-77
2021/05/13 05:43:22;;;;;;;12.93;8.57;;;12.50;74.50;;;;;;5024779;28;20074;-75
2021/05/13 05:45:48;;;;;;;73.32;40.78;;;12.60;73.90;;;;;;5033584;28;20396;-76
2021/05/13 05:48:14;;;;;;;57.80;32.65;;;12.60;74.10;;;;;;5024075;28;20041;-74
2021/05/13 05:50:41;;;;;;;90.57;65.00;;;12.60;74.30;;;;;;5017456;28;20045;-75
2021/05/13 05:53:08;;;;;;;27.98;19.13;;;12.80;73.50;;;;;;5020172;28;20477;-74
2021/05/13 05:55:34;;;;;;;16.90;10.35;;;12.80;73.50;;;;;;5025951;28;20033;-75
2021/05/13 05:58:01;;;;;;;11.35;8.05;;;12.90;74.00;;;;;;5023946;28;20045;-76
2021/05/13 06:00:27;;;;;;;13.20;7.88;;;12.90;73.80;;;;;;5027461;28;20434;-75
2021/05/13 06:02:52;;;;;;;13.20;7.43;;;12.90;73.10;;;;;;5006617;28;20032;-75
2021/05/13 06:05:18;;;;;;;13.77;7.93;;;12.90;73.00;;;;;;4999083;28;20030;-77
2021/05/13 06:07:44;;;;;;;13.77;9.38;;;12.90;73.20;;;;;;5004564;28;20046;-74
2021/05/13 06:10:12;;;;;;;13.40;8.00;;;13.00;73.50;;;;;;5014764;28;20047;-74
2021/05/13 06:12:39;;;;;;;10.18;7.28;;;13.00;73.70;;;;;;5026882;28;20041;-75
2021/05/13 06:15:07;;;;;;;12.13;7.60;;;13.00;74.10;;;;;;5028084;28;20096;-75
2021/05/13 06:17:33;;;;;;;13.60;7.47;;;13.10;74.70;;;;;;5025431;28;20548;-75
2021/05/13 06:20:01;;;;;;;12.15;7.25;;;13.10;74.10;;;;;;5025841;28;20038;-75
2021/05/13 06:22:29;;;;;;;15.07;7.28;;;13.20;74.70;;;;;;5040626;28;20030;-75
2021/05/13 06:24:55;;;;;;;12.02;7.10;;;13.20;74.00;;;;;;5015672;28;20421;-76
2021/05/13 06:27:21;;;;;;;12.25;6.78;;;13.30;73.50;;;;;;5025432;28;20072;-77
2021/05/13 06:29:47;;;;;;;12.07;7.20;;;13.30;73.90;;;;;;5034773;28;20029;-75
2021/05/13 06:32:13;;;;;;;11.50;7.18;;;13.30;73.40;;;;;;5028783;28;20029;-75
2021/05/13 06:34:39;;;;;;;11.07;6.80;;;13.40;73.40;;;;;;5024420;28;20354;-75
2021/05/13 06:37:04;;;;;;;15.10;7.75;;;13.50;73.00;;;;;;5015933;28;20158;-75
2021/05/13 06:39:33;;;;;;;11.13;6.70;;;13.40;72.30;;;;;;5027644;28;20499;-75
2021/05/13 06:42:03;;;;;;;12.95;7.25;;;13.40;72.60;;;;;;5024305;28;20095;-75
2021/05/13 06:44:29;;;;;;;12.50;7.25;;;13.40;72.60;;;;;;5026121;28;20080;-76
2021/05/13 06:46:55;;;;;;;10.20;6.70;;;13.30;72.40;;;;;;5025523;28;20033;-75
2021/05/13 06:49:20;;;;;;;11.32;7.10;;;13.40;72.80;;;;;;5011044;28;20049;-78
2021/05/13 06:51:46;;;;;;;12.38;7.75;;;13.60;72.80;;;;;;5017170;28;20100;-78
2021/05/13 06:54:13;;;;;;;30.98;15.85;;;13.70;72.40;;;;;;5006983;28;20068;-75
2021/05/13 06:56:40;;;;;;;37.67;17.02;;;13.80;70.90;;;;;;5012647;28;20044;-75
2021/05/13 06:59:07;;;;;;;13.13;7.07;;;13.80;69.60;;;;;;5022349;28;20079;-77
2021/05/13 07:01:32;;;;;;;15.43;9.38;;;13.70;69.40;;;;;;5027248;28;20037;-75
2021/05/13 07:03:58;;;;;;;13.25;7.43;;;13.60;69.50;;;;;;5014259;28;20072;-75
2021/05/13 07:06:24;;;;;;;14.65;7.72;;;13.60;69.80;;;;;;5014103;28;20084;-75
2021/05/13 07:08:49;;;;;;;13.00;7.20;;;13.60;69.10;;;;;;5015082;28;20033;-76
2021/05/13 07:11:15;;;;;;;47.85;26.40;;;13.50;68.80;;;;;;5011892;28;20404;-76
2021/05/13 07:13:41;;;;;;;12.93;7.07;;;13.60;69.80;;;;;;5016374;28;20393;-76
2021/05/13 07:16:07;;;;;;;13.15;6.85;;;13.60;68.70;;;;;;5014250;28;20497;-76
2021/05/13 07:18:33;;;;;;;14.18;7.72;;;13.50;68.90;;;;;;5011616;28;20172;-75
2021/05/13 07:20:59;;;;;;;17.80;10.30;;;13.40;69.90;;;;;;5015311;28;20029;-75
2021/05/13 07:23:24;;;;;;;14.85;7.50;;;13.50;71.00;;;;;;5010985;28;20500;-75
2021/05/13 07:25:50;;;;;;;12.90;7.30;;;13.40;71.40;;;;;;5013148;28;20030;-79
2021/05/13 07:28:16;;;;;;;16.75;8.35;;;13.10;71.60;;;;;;5018362;28;20104;-78
2021/05/13 07:30:45;;;;;;;41.58;19.35;;;12.90;73.80;;;;;;5018424;28;20128;-75
2021/05/13 07:33:10;;;;;;;20.10;8.60;;;12.90;73.30;;;;;;5015974;28;20030;-74
2021/05/13 07:35:36;;;;;;;82.07;40.63;;;13.00;72.90;;;;;;5014682;28;20099;-75
2021/05/13 07:38:03;;;;;;;25.98;13.90;;;13.10;73.70;;;;;;5015120;28;20398;-75
2021/05/13 07:40:29;;;;;;;78.50;37.10;;;13.10;73.70;;;;;;5014558;28;20037;-72
2021/05/13 07:42:55;;;;;;;38.60;20.33;;;13.20;73.00;;;;;;5007297;28;20030;-73
2021/05/13 07:45:22;;;;;;;39.17;18.50;;;13.30;72.90;;;;;;5017656;28;20044;-78
2021/05/13 07:47:48;;;;;;;17.02;8.88;;;13.50;72.00;;;;;;5016665;28;20061;-77
2021/05/13 07:50:19;;;;;;;20.60;12.02;;;13.60;71.30;;;;;;5017241;28;20053;-70
2021/05/13 07:52:45;;;;;;;17.83;8.82;;;13.90;70.70;;;;;;5015613;28;20370;-72
2021/05/13 07:55:12;;;;;;;19.90;11.85;;;14.10;70.30;;;;;;5016257;28;20073;-76
2021/05/13 07:57:37;;;;;;;24.65;14.02;;;14.40;70.20;;;;;;5014728;28;20046;-71
2021/05/13 08:00:07;;;;;;;18.55;12.20;;;14.80;68.80;;;;;;5015988;28;20462;-75
2021/05/13 08:02:32;;;;;;;13.15;6.10;;;15.10;67.10;;;;;;5021833;28;20118;-70
2021/05/13 08:04:58;;;;;;;12.95;6.05;;;15.20;65.90;;;;;;5025398;28;20033;-73
2021/05/13 08:07:24;;;;;;;11.48;5.40;;;15.30;65.60;;;;;;5019487;28;20454;-71
2021/05/13 08:09:50;;;;;;;10.63;4.88;;;15.40;63.70;;;;;;5027846;28;20108;-70
2021/05/13 08:12:16;;;;;;;8.95;4.45;;;15.30;62.90;;;;;;5028067;28;20470;-71
2021/05/13 08:14:43;;;;;;;11.32;4.53;;;15.30;61.70;;;;;;5015189;28;20520;-71
2021/05/13 08:17:09;;;;;;;12.57;4.75;;;15.40;62.40;;;;;;5020126;28;20045;-71
2021/05/13 08:19:34;;;;;;;10.27;4.95;;;15.50;62.00;;;;;;5004433;28;20388;-71
2021/05/13 08:22:00;;;;;;;13.10;6.45;;;15.50;62.10;;;;;;4996515;28;20125;-74
2021/05/13 08:24:26;;;;;;;10.65;5.40;;;15.70;61.20;;;;;;4994298;28;20058;-72
2021/05/13 08:26:51;;;;;;;10.95;4.90;;;15.80;60.40;;;;;;5008553;28;20049;-71
2021/05/13 08:29:17;;;;;;;12.63;5.35;;;15.90;60.70;;;;;;5014017;28;20045;-71
2021/05/13 08:31:43;;;;;;;10.85;5.07;;;16.10;60.10;;;;;;5025257;28;20569;-72
2021/05/13 08:34:09;;;;;;;14.70;6.15;;;16.10;60.00;;;;;;5025167;28;20480;-73
2021/05/13 08:36:34;;;;;;;12.57;6.60;;;16.70;58.90;;;;;;5026079;28;20048;-71
2021/05/13 08:39:00;;;;;;;10.52;5.03;;;17.00;57.40;;;;;;5020037;28;20103;-74
2021/05/13 08:41:26;;;;;;;10.75;5.15;;;17.10;57.00;;;;;;5027670;28;20566;-72
2021/05/13 08:43:52;;;;;;;14.23;8.13;;;17.30;57.90;;;;;;5020873;28;20040;-71
2021/05/13 08:46:20;;;;;;;10.90;5.05;;;17.60;57.10;;;;;;5009661;28;20117;-73
2021/05/13 08:48:46;;;;;;;12.68;4.82;;;17.80;55.10;;;;;;5002389;28;20104;-72
2021/05/13 08:51:12;;;;;;;9.13;3.97;;;17.90;54.70;;;;;;5016664;28;20061;-73
2021/05/13 08:53:55;;;;;;;13.00;4.15;;;18.00;52.80;;;;;;5011100;28;20072;-74
2021/05/13 08:56:22;;;;;;;10.70;4.05;;;18.00;50.40;;;;;;5016594;28;20034;-72
2021/05/13 08:58:48;;;;;;;10.75;3.95;;;18.10;50.90;;;;;;5021692;28;20053;-70
2021/05/13 09:01:21;;;;;;;10.13;3.50;;;18.20;49.90;;;;;;5022199;28;20535;-72
2021/05/13 09:03:49;;;;;;;9.10;3.97;;;18.20;49.50;;;;;;5028511;28;20041;-73
2021/05/13 09:06:32;;;;;;;10.50;3.50;;;18.60;49.00;;;;;;5024086;28;20049;-71
2021/05/13 09:09:14;;;;;;;11.38;4.00;;;19.00;48.30;;;;;;5025820;28;20504;-70
2021/05/13 09:11:57;;;;;;;11.18;3.95;;;19.10;47.40;;;;;;5015278;28;20492;-70
2021/05/13 09:14:28;;;;;;;10.63;3.60;;;19.20;47.90;;;;;;5017749;28;20133;-70
2021/05/13 09:17:01;;;;;;;12.57;3.85;;;19.20;46.80;;;;;;5019614;28;21059;-71
2021/05/13 09:19:37;;;;;;;8.05;3.45;;;19.10;46.70;;;;;;5008090;28;20051;-70
2021/05/13 09:22:09;;;;;;;10.32;3.55;;;19.10;47.90;;;;;;5009728;28;20038;-71
2021/05/13 09:24:47;;;;;;;11.45;3.72;;;19.10;47.70;;;;;;5000515;28;20041;-78
2021/05/13 09:27:18;;;;;;;9.32;3.45;;;19.10;48.70;;;;;;5015303;28;20512;-71
2021/05/13 09:29:44;;;;;;;9.18;3.72;;;19.10;47.80;;;;;;5013158;28;20109;-72
2021/05/13 09:32:20;;;;;;;9.02;3.83;;;19.10;48.50;;;;;;5002900;28;20055;-72
2021/05/13 09:34:46;;;;;;;12.27;4.03;;;19.20;48.70;;;;;;5018231;28;20034;-70
2021/05/13 09:37:12;;;;;;;10.00;3.92;;;19.30;47.90;;;;;;5014932;28;20404;-71
2021/05/13 09:39:45;;;;;;;8.77;3.95;;;19.40;47.70;;;;;;5001145;28;20037;-70
2021/05/13 09:42:11;;;;;;;11.38;4.35;;;19.60;46.40;;;;;;5025729;28;20465;-72
2021/05/13 09:44:38;;;;;;;9.00;3.85;;;19.60;47.30;;;;;;5028579;28;20057;-70
2021/05/13 09:47:19;;;;;;;11.35;5.00;;;19.90;46.90;;;;;;5022897;28;20056;-71
2021/05/13 09:49:59;;;;;;;14.02;4.72;;;19.70;46.90;;;;;;5018066;28;20535;-71
2021/05/13 09:52:46;;;;;;;11.88;4.97;;;19.90;47.70;;;;;;5018589;28;20032;-76
2021/05/13 09:55:38;;;;;;;11.00;4.57;;;20.10;46.30;;;;;;5017568;28;20037;-71
2021/05/13 09:58:10;;;;;;;12.40;4.63;;;19.90;46.90;;;;;;5015231;28;20038;-71
2021/05/13 10:00:41;;;;;;;14.77;4.90;;;20.10;48.30;;;;;;5015757;28;20097;-72
2021/05/13 10:03:14;;;;;;;11.35;5.13;;;19.90;48.40;;;;;;5013155;28;20088;-77
2021/05/13 10:05:42;;;;;;;11.48;5.53;;;19.80;48.70;;;;;;5015600;28;20060;-71
2021/05/13 10:08:09;;;;;;;10.20;5.35;;;19.90;48.40;;;;;;5017615;28;20025;-70
2021/05/13 10:10:36;;;;;;;14.35;5.07;;;20.00;48.70;;;;;;4994163;28;20042;-71
2021/05/13 10:13:02;;;;;;;13.30;5.72;;;20.20;49.00;;;;;;4998141;28;20092;-71
2021/05/13 10:15:28;;;;;;;12.35;5.40;;;20.30;47.50;;;;;;4996596;28;20542;-70
2021/05/13 10:17:58;;;;;;;11.90;5.28;;;20.20;48.30;;;;;;4997641;28;20167;-72
2021/05/13 10:20:27;;;;;;;10.98;4.95;;;20.00;48.30;;;;;;5017902;28;20029;-70
2021/05/13 10:22:56;;;;;;;11.70;5.28;;;20.10;47.90;;;;;;5001001;28;20038;-73
2021/05/13 10:25:30;;;;;;;12.10;5.13;;;20.10;47.50;;;;;;5002774;28;20045;-74
2021/05/13 10:28:01;;;;;;;11.85;4.80;;;20.10;47.90;;;;;;5002347;28;20121;-80
2021/05/13 10:30:29;;;;;;;9.05;4.28;;;20.30;48.30;;;;;;4997252;28;20053;-71
2021/05/13 10:33:20;;;;;;;10.80;3.90;;;20.40;47.60;;;;;;5011685;28;20172;-71
2021/05/13 10:36:06;;;;;;;10.20;4.28;;;20.30;47.80;;;;;;5006923;28;20076;-70
2021/05/13 10:38:49;;;;;;;8.63;4.50;;;20.10;48.70;;;;;;5017447;28;20059;-79
2021/05/13 10:41:35;;;;;;;8.48;4.70;;;20.10;49.20;;;;;;5018263;28;20128;-71
2021/05/13 10:44:07;;;;;;;9.88;5.05;;;20.00;49.60;;;;;;5016326;28;20056;-74
2021/05/13 10:46:33;;;;;;;10.38;4.80;;;20.10;50.30;;;;;;5021094;28;20033;-73
2021/05/13 10:49:21;;;;;;;12.48;4.55;;;20.00;50.50;;;;;;5012778;28;20033;-74
2021/05/13 10:51:51;;;;;;;11.27;4.18;;;19.70;50.80;;;;;;5009466;28;20034;-77
2021/05/13 10:54:43;;;;;;;11.43;4.40;;;19.60;50.50;;;;;;5014263;28;20080;-77
2021/05/13 10:57:18;;;;;;;11.10;4.43;;;19.50;50.90;;;;;;5016601;28;20038;-70
2021/05/13 11:00:08;;;;;;;9.10;4.32;;;19.50;51.00;;;;;;5021309;28;20034;-71
2021/05/13 11:02:47;;;;;;;12.57;4.93;;;19.20;51.70;;;;;;5012857;28;20526;-73
2021/05/13 11:05:29;;;;;;;11.15;4.30;;;19.10;53.20;;;;;;5008895;28;20100;-71
2021/05/13 11:07:56;;;;;;;9.57;4.38;;;19.10;53.90;;;;;;5000942;28;20030;-73
2021/05/13 11:10:47;;;;;;;9.57;4.28;;;19.10;54.10;;;;;;5019638;28;20038;-73
2021/05/13 11:13:14;;;;;;;10.07;4.18;;;19.00;54.90;;;;;;5017902;28;20041;-73
2021/05/13 11:15:42;;;;;;;9.63;4.43;;;19.00;55.00;;;;;;5021484;28;20038;-71
2021/05/13 11:18:11;;;;;;;6.55;3.97;;;19.00;56.20;;;;;;5020280;28;20196;-71
2021/05/13 11:20:45;;;;;;;11.73;5.40;;;18.80;58.40;;;;;;5019928;28;20150;-75
2021/05/13 11:23:17;;;;;;;;;;;18.60;60.30;;;;;;5012200;28;20041;-72
2021/05/13 11:25:46;;;;;;;11.85;5.70;;;18.60;61.50;;;;;;5014334;28;19921;-73
2021/05/13 11:28:42;;;;;;;10.65;5.57;;;18.40;60.80;;;;;;5019531;28;20049;-72
2021/05/13 11:31:08;;;;;;;9.23;5.70;;;18.40;61.50;;;;;;5000559;28;20061;-71
2021/05/13 11:33:47;;;;;;;12.32;5.90;;;18.40;60.00;;;;;;5010556;28;20054;-79
2021/05/13 11:36:16;;;;;;;8.82;6.15;;;18.00;61.30;;;;;;5016249;28;20440;-75
2021/05/13 11:38:43;;;;;;;8.98;6.68;;;17.50;63.70;;;;;;4997790;28;20049;-71
2021/05/13 11:41:09;;;;;;;7.50;4.70;;;16.90;65.50;;;;;;4996217;28;20034;-73
2021/05/13 11:43:39;;;;;;;7.60;4.75;;;16.40;66.70;;;;;;4990726;28;20453;-71
2021/05/13 11:46:10;;;;;;;8.70;5.05;;;16.10;68.40;;;;;;4996290;28;20081;-75
2021/05/13 11:48:41;;;;;;;9.38;5.15;;;16.00;70.10;;;;;;5001302;28;20713;-76
2021/05/13 11:51:15;;;;;;;10.85;5.47;;;15.70;71.50;;;;;;5018669;28;20095;-71
2021/05/13 11:53:44;;;;;;;7.88;4.88;;;15.40;71.50;;;;;;5017777;28;20184;-80
2021/05/13 11:56:13;;;;;;;11.75;6.43;;;15.10;72.90;;;;;;5018747;28;20035;-81
2021/05/13 11:58:51;;;;;;;11.10;6.10;;;14.80;74.40;;;;;;5017553;28;20124;-71
2021/05/13 12:01:28;;;;;;;7.75;4.95;;;14.60;74.00;;;;;;5017838;28;20029;-72
2021/05/13 12:04:01;;;;;;;6.80;3.90;;;14.60;73.40;;;;;;5020152;28;20021;-70
2021/05/13 12:06:28;;;;;;;5.95;3.03;;;14.50;74.30;;;;;;5019544;28;20034;-71
2021/05/13 12:08:59;;;;;;;6.65;3.17;;;14.30;75.00;;;;;;5000235;28;20037;-70
2021/05/13 12:11:27;;;;;;;7.82;3.20;;;14.40;76.10;;;;;;5008533;28;20393;-71
2021/05/13 12:13:54;;;;;;;6.97;3.78;;;14.40;75.20;;;;;;5020668;28;20033;-72
2021/05/13 12:16:21;;;;;;;5.63;3.25;;;14.60;76.70;;;;;;5020897;28;21501;-70
2021/05/13 12:18:50;;;;;;;4.43;2.75;;;14.70;76.50;;;;;;5015564;28;20061;-71
2021/05/13 12:21:18;;;;;;;4.95;3.03;;;14.80;76.00;;;;;;5018563;28;20037;-73
2021/05/13 12:23:46;;;;;;;6.72;3.40;;;14.80;74.90;;;;;;5017528;28;20433;-73
2021/05/13 12:26:14;;;;;;;5.20;2.58;;;14.80;75.60;;;;;;5016827;28;20034;-75
2021/05/13 12:28:43;;;;;;;5.88;2.95;;;14.80;74.30;;;;;;5017083;28;20030;-75
2021/05/13 12:31:08;;;;;;;7.13;3.83;;;14.70;75.20;;;;;;5016044;28;20087;-71
2021/05/13 12:33:39;;;;;;;7.15;3.30;;;14.90;75.60;;;;;;5018617;28;20072;-72
2021/05/13 12:36:11;;;;;;;3.90;2.35;;;14.90;74.80;;;;;;5018751;28;20034;-72
2021/05/13 12:38:42;;;;;;;5.43;3.28;;;14.70;73.30;;;;;;5021216;28;20119;-73
2021/05/13 12:41:12;;;;;;;4.97;2.75;;;14.90;74.90;;;;;;5017749;28;20036;-74
2021/05/13 12:43:39;;;;;;;6.95;3.10;;;14.90;75.10;;;;;;5020390;28;20041;-72
2021/05/13 12:46:25;;;;;;;4.18;2.60;;;15.10;74.10;;;;;;5013703;28;20037;-72
2021/05/13 12:48:53;;;;;;;5.18;2.95;;;15.20;74.70;;;;;;5016053;28;20038;-72
2021/05/13 12:51:25;;;;;;;5.05;2.72;;;15.20;73.00;;;;;;5015715;28;20095;-75
2021/05/13 12:53:56;;;;;;;4.32;2.72;;;15.10;73.50;;;;;;5012716;28;20038;-73